Time;durP1;ratioP1;P1;durP2;ratioP2;P2;SDS_P1;SDS_P2;PMS_P1;PMS_P2;Temp;Humidity;BMP_temperature;BMP_pressure;BME280_temperature;BME280_humidity;BME280_pressure;Samples;Min_cycle;Max_cycle;Signal;HPM_P1;HPM_P2
2022/04/25 00:00:31;;;;;;;6.60;3.80;;;;;;99299.84;;;;107178;1274;64773;-30
2022/04/25 00:03:07;;;;;;;5.20;3.50;;;;;;99294.67;;;;107167;1274;67620;-31
2022/04/25 00:05:35;;;;;;;5.60;3.60;;;;;;99297.52;;;;107177;1274;64964;-30
2022/04/25 00:08:07;;;;;;;5.90;3.60;;;;;;99297.42;;;;107100;1274;64837;-31
2022/04/25 00:10:37;;;;;;;6.20;3.50;;;;;;99296.66;;;;107182;1274;64760;-27
2022/04/25 00:13:07;;;;;;;5.30;3.50;;;;;;99297.17;;;;107172;1274;64875;-27
2022/04/25 00:15:34;;;;;;;5.80;3.80;;;;;;99295.23;;;;107160;1274;65220;-30
2022/04/25 00:18:05;;;;;;;5.60;3.50;;;;;;99292.91;;;;107160;1273;64727;-31
2022/04/25 00:20:33;;;;;;;5.80;3.50;;;;;;99292.40;;;;107208;1274;64715;-31
2022/04/25 00:23:04;;;;;;;6.50;3.80;;;;;;99293.45;;;;107125;1274;64857;-33
2022/04/25 00:25:36;;;;;;;5.70;4.00;;;;;;99290.91;;;;107203;1274;64728;-28
2022/04/25 00:28:07;;;;;;;5.60;3.50;;;;;;99288.52;;;;107020;1276;65930;-26
2022/04/25 00:30:37;;;;;;;5.70;3.60;;;;;;99285.15;;;;107188;1274;64725;-30
2022/04/25 00:33:07;;;;;;;5.60;3.30;;;;;;99281.80;;;;107116;1274;64856;-30
2022/04/25 00:35:35;;;;;;;6.70;3.40;;;;;;99277.45;;;;107184;1274;64754;-27
2022/04/25 00:38:05;;;;;;;5.50;3.60;;;;;;99278.98;;;;107216;1274;64735;-27
2022/04/25 00:40:32;;;;;;;5.30;3.60;;;;;;99279.58;;;;107204;1274;66179;-27
2022/04/25 00:43:02;;;;;;;5.90;3.30;;;;;;99281.96;;;;107175;1274;65484;-27
2022/04/25 00:45:33;;;;;;;5.20;3.30;;;;;;99282.33;;;;107164;1274;64744;-30
2022/04/25 00:48:01;;;;;;;5.60;3.60;;;;;;99280.52;;;;107171;1274;64741;-30
2022/04/25 00:50:29;;;;;;;5.80;3.80;;;;;;99280.23;;;;107196;1274;64852;-27
2022/04/25 00:52:57;;;;;;;6.60;3.50;;;;;;99280.99;;;;107197;1274;65118;-27
2022/04/25 00:55:25;;;;;;;5.30;3.40;;;;;;99279.67;;;;107187;1274;64817;-27
2022/04/25 00:57:54;;;;;;;5.20;3.60;;;;;;99280.56;;;;107145;1274;64774;-27
2022/04/25 01:00:25;;;;;;;5.30;3.60;;;;;;99277.08;;;;107147;1274;64853;-29
2022/04/25 01:02:52;;;;;;;5.70;3.40;;;;;;99274.72;;;;107197;1274;64949;-32
2022/04/25 01:05:22;;;;;;;6.90;4.20;;;;;;99272.45;;;;107169;1274;66119;-31
2022/04/25 01:07:49;;;;;;;5.50;3.40;;;;;;99272.58;;;;107100;1274;64842;-31
2022/04/25 01:10:19;;;;;;;5.60;3.60;;;;;;99272.63;;;;107166;1274;65795;-31
2022/04/25 01:12:50;;;;;;;5.40;3.40;;;;;;99273.74;;;;107181;1274;64847;-26
2022/04/25 01:15:17;;;;;;;5.50;3.70;;;;;;99273.36;;;;107151;1274;64750;-27
2022/04/25 01:17:44;;;;;;;6.50;3.20;;;;;;99267.31;;;;107195;1274;65959;-27
2022/04/25 01:20:12;;;;;;;5.50;3.30;;;;;;99267.23;;;;107087;1274;64799;-27
2022/04/25 01:22:52;;;;;;;4.90;3.30;;;;;;99263.16;;;;107157;1274;64869;-27
2022/04/25 01:28:05;;;;;;;4.80;3.10;;;;;;99257.16;;;;107143;1274;64908;-31
2022/04/25 01:30:35;;;;;;;5.20;3.40;;;;;;99253.38;;;;107176;1274;65220;-27
2022/04/25 01:33:06;;;;;;;5.90;3.30;;;;;;99251.50;;;;107112;1274;64894;-27
2022/04/25 01:35:36;;;;;;;5.20;3.20;;;;;;99246.77;;;;107088;1274;64962;-30
2022/04/25 01:38:05;;;;;;;4.80;3.00;;;;;;99242.98;;;;107159;1274;64712;-31
2022/04/25 01:40:35;;;;;;;6.00;3.20;;;;;;99242.80;;;;107235;1274;64757;-30
2022/04/25 01:43:05;;;;;;;5.10;3.00;;;;;;99246.34;;;;107156;1274;66161;-31
2022/04/25 01:45:32;;;;;;;5.30;3.20;;;;;;99244.48;;;;107155;1274;64756;-30
2022/04/25 01:48:03;;;;;;;5.40;3.10;;;;;;99241.86;;;;107146;1274;64869;-31
2022/04/25 01:50:30;;;;;;;4.70;3.00;;;;;;99240.26;;;;107155;1275;64891;-27
2022/04/25 01:53:00;;;;;;;4.60;2.90;;;;;;99243.29;;;;107160;1274;64731;-26
2022/04/25 01:55:30;;;;;;;5.10;3.50;;;;;;99241.95;;;;107174;1274;66424;-27
2022/04/25 01:58:00;;;;;;;4.80;2.90;;;;;;99244.95;;;;107144;1274;65932;-27
2022/04/25 02:00:28;;;;;;;5.50;3.00;;;;;;99246.36;;;;107185;1274;64852;-27
2022/04/25 02:02:55;;;;;;;5.50;3.10;;;;;;99245.80;;;;107102;1274;64777;-27
2022/04/25 02:05:22;;;;;;;5.10;3.10;;;;;;99246.02;;;;107158;1274;64968;-29
2022/04/25 02:07:50;;;;;;;4.80;3.10;;;;;;99245.67;;;;107181;1274;65477;-31
2022/04/25 02:10:17;;;;;;;5.10;3.20;;;;;;99246.23;;;;107153;1274;64813;-31
2022/04/25 02:12:44;;;;;;;5.00;3.20;;;;;;99246.80;;;;107141;1274;64728;-31
2022/04/25 02:15:13;;;;;;;5.50;3.00;;;;;;99247.21;;;;107089;1277;64759;-31
2022/04/25 02:17:42;;;;;;;4.60;2.90;;;;;;99246.14;;;;107170;1274;64961;-31
2022/04/25 02:20:10;;;;;;;5.30;2.90;;;;;;99244.55;;;;107164;1274;64840;-30
2022/04/25 02:22:38;;;;;;;5.30;3.20;;;;;;99239.88;;;;107159;1274;64840;-30
2022/04/25 02:25:06;;;;;;;4.20;2.80;;;;;;99240.65;;;;107156;1274;64863;-31
2022/04/25 02:27:37;;;;;;;4.70;3.00;;;;;;99238.73;;;;107163;1274;64775;-31
2022/04/25 02:30:05;;;;;;;5.30;3.00;;;;;;99235.68;;;;107133;1275;64894;-30
2022/04/25 02:32:36;;;;;;;4.50;3.10;;;;;;99234.80;;;;107206;1274;65991;-27
2022/04/25 02:35:07;;;;;;;4.60;2.80;;;;;;99233.31;;;;107158;1274;64871;-26
2022/04/25 02:37:34;;;;;;;4.60;2.90;;;;;;99233.63;;;;107169;1274;64732;-31
2022/04/25 02:40:06;;;;;;;5.40;2.90;;;;;;99237.02;;;;107143;1274;64793;-30
2022/04/25 02:42:33;;;;;;;4.80;2.90;;;;;;99236.69;;;;107224;1274;64766;-31
2022/04/25 02:45:00;;;;;;;5.00;2.80;;;;;;99237.08;;;;107118;1274;66156;-31
2022/04/25 02:47:31;;;;;;;5.20;2.80;;;;;;99239.84;;;;107147;1274;64890;-30
2022/04/25 02:49:59;;;;;;;5.00;2.80;;;;;;99241.19;;;;107136;1274;64823;-30
2022/04/25 02:52:26;;;;;;;4.70;2.70;;;;;;99240.16;;;;107155;1274;64882;-31
2022/04/25 02:54:56;;;;;;;4.60;2.90;;;;;;99240.33;;;;107193;1274;64842;-31
2022/04/25 02:57:23;;;;;;;5.10;3.40;;;;;;99240.20;;;;107191;1274;66166;-27
2022/04/25 02:59:53;;;;;;;4.60;2.70;;;;;;99238.52;;;;107159;1274;64832;-27
2022/04/25 03:02:20;;;;;;;5.20;3.20;;;;;;99239.91;;;;107098;1277;64753;-26
2022/04/25 03:04:48;;;;;;;4.20;2.50;;;;;;99236.86;;;;107152;1274;64883;-27
2022/04/25 03:07:15;;;;;;;3.90;2.50;;;;;;99241.09;;;;107214;1274;64907;-27
2022/04/25 03:09:46;;;;;;;4.90;3.10;;;;;;99239.84;;;;107182;1274;66338;-26
2022/04/25 03:12:18;;;;;;;4.80;2.70;;;;;;99242.08;;;;107192;1274;64729;-31
2022/04/25 03:14:49;;;;;;;4.40;3.10;;;;;;99247.58;;;;107193;1274;64866;-31
2022/04/25 03:17:16;;;;;;;5.00;2.90;;;;;;99251.74;;;;107187;1274;64888;-27
2022/04/25 03:19:44;;;;;;;4.90;2.90;;;;;;99252.02;;;;107198;1274;64888;-27
2022/04/25 03:22:14;;;;;;;4.40;2.70;;;;;;99252.58;;;;107179;1274;64896;-27
2022/04/25 03:24:41;;;;;;;4.70;2.80;;;;;;99252.25;;;;107167;1273;64963;-27
2022/04/25 03:27:08;;;;;;;4.50;2.70;;;;;;99254.27;;;;107182;1274;64721;-32
2022/04/25 03:29:36;;;;;;;4.40;2.80;;;;;;99254.08;;;;107166;1274;64836;-32
2022/04/25 03:32:04;;;;;;;4.30;2.70;;;;;;99256.38;;;;107192;1274;64859;-27
2022/04/25 03:34:37;;;;;;;4.90;2.80;;;;;;99254.31;;;;107209;1274;65814;-26
2022/04/25 03:37:04;;;;;;;4.60;2.60;;;;;;99254.67;;;;107185;1274;64730;-31
2022/04/25 03:39:31;;;;;;;4.30;2.70;;;;;;99253.54;;;;107165;1274;64882;-30
2022/04/25 03:42:00;;;;;;;4.40;3.00;;;;;;99249.35;;;;107162;1274;64762;-27
2022/04/25 03:44:30;;;;;;;3.70;2.50;;;;;;99251.67;;;;107186;1274;64881;-27
2022/04/25 03:47:00;;;;;;;4.60;2.90;;;;;;99251.03;;;;107181;1274;66026;-31
2022/04/25 03:49:30;;;;;;;4.30;2.60;;;;;;99253.30;;;;107151;1274;64953;-31
2022/04/25 03:52:00;;;;;;;4.80;3.00;;;;;;99253.61;;;;107186;1274;64785;-30
2022/04/25 03:57:16;;;;;;;4.40;2.70;;;;;;99254.73;;;;107212;1274;64714;-27
2022/04/25 03:59:46;;;;;;;4.40;2.60;;;;;;99261.25;;;;107093;1274;66200;-27
2022/04/25 04:02:16;;;;;;;5.80;2.80;;;;;;99263.77;;;;107184;1274;64757;-31
2022/04/25 04:04:43;;;;;;;4.40;2.50;;;;;;99264.29;;;;107145;1274;64878;-30
2022/04/25 04:07:14;;;;;;;5.00;2.70;;;;;;99264.38;;;;107196;1274;64753;-30
2022/04/25 04:09:47;;;;;;;4.40;2.50;;;;;;99268.73;;;;107185;1274;64763;-31
2022/04/25 04:12:19;;;;;;;4.30;2.60;;;;;;99273.79;;;;107170;1274;66196;-31
2022/04/25 04:14:48;;;;;;;4.30;2.80;;;;;;99278.10;;;;106907;1274;320596;-30
2022/04/25 04:17:17;;;;;;;4.60;2.50;;;;;;99277.79;;;;107193;1274;64987;-26
2022/04/25 04:19:48;;;;;;;4.50;2.80;;;;;;99278.44;;;;107182;1274;65133;-27
2022/04/25 04:22:15;;;;;;;4.30;2.50;;;;;;99279.23;;;;107192;1274;65000;-31
2022/04/25 04:24:43;;;;;;;4.40;2.60;;;;;;99281.64;;;;107192;1274;64978;-32
2022/04/25 04:27:11;;;;;;;4.40;2.70;;;;;;99285.57;;;;107188;1274;64753;-31
2022/04/25 04:29:41;;;;;;;4.00;2.30;;;;;;99289.52;;;;107176;1274;64759;-31
2022/04/25 04:32:09;;;;;;;3.90;2.40;;;;;;99292.68;;;;107208;1274;64767;-32
2022/04/25 04:34:40;;;;;;;4.60;2.60;;;;;;99294.57;;;;107145;1274;64802;-30
2022/04/25 04:37:08;;;;;;;4.30;2.50;;;;;;99298.54;;;;107195;1274;65956;-26
2022/04/25 04:39:38;;;;;;;4.30;2.40;;;;;;99300.55;;;;107126;1274;64847;-27
2022/04/25 04:42:06;;;;;;;4.20;2.40;;;;;;99302.84;;;;107145;1274;64859;-28
2022/04/25 04:44:33;;;;;;;3.70;2.20;;;;;;99305.16;;;;107215;1274;64770;-27
2022/04/25 04:47:01;;;;;;;3.80;2.20;;;;;;99312.00;;;;107130;1274;64727;-27
2022/04/25 04:49:28;;;;;;;4.30;2.50;;;;;;99312.29;;;;107172;1274;66161;-27
2022/04/25 04:51:59;;;;;;;4.90;2.30;;;;;;99313.56;;;;107017;1274;64871;-30
2022/04/25 04:54:29;;;;;;;4.50;2.50;;;;;;99315.36;;;;107116;1275;64746;-31
2022/04/25 04:57:00;;;;;;;4.50;2.50;;;;;;99315.96;;;;107092;1274;64840;-31
2022/04/25 04:59:31;;;;;;;3.80;2.30;;;;;;99317.27;;;;107138;1274;64766;-30
2022/04/25 05:02:06;;;;;;;4.70;2.60;;;;;;99317.20;;;;107140;1274;67656;-31
2022/04/25 05:04:33;;;;;;;4.50;2.60;;;;;;99316.39;;;;107193;1274;64783;-31
2022/04/25 05:07:05;;;;;;;4.30;2.70;;;;;;99316.25;;;;107168;1274;64871;-27
2022/04/25 05:09:32;;;;;;;4.40;2.70;;;;;;99319.48;;;;107222;1274;64854;-27
2022/04/25 05:11:59;;;;;;;4.60;2.70;;;;;;99319.95;;;;107195;1274;64839;-31
2022/04/25 05:14:26;;;;;;;5.30;2.30;;;;;;99320.76;;;;107171;1274;66549;-31
2022/04/25 05:16:54;;;;;;;5.10;2.40;;;;;;99320.38;;;;107147;1274;64753;-31
2022/04/25 05:19:24;;;;;;;6.30;2.80;;;;;;99322.41;;;;107180;1274;64775;-31
2022/04/25 05:21:54;;;;;;;5.10;2.50;;;;;;99327.48;;;;107135;1274;64741;-27
2022/04/25 05:24:22;;;;;;;4.60;2.50;;;;;;99327.70;;;;107154;1274;64923;-27
2022/04/25 05:26:52;;;;;;;6.10;2.50;;;;;;99324.29;;;;107154;1274;66172;-27
2022/04/25 05:29:20;;;;;;;5.80;2.20;;;;;;99323.69;;;;107191;1274;64853;-28
2022/04/25 05:31:51;;;;;;;5.30;2.40;;;;;;99323.20;;;;107159;1274;64938;-27
2022/04/25 05:34:18;;;;;;;4.80;2.30;;;;;;99323.76;;;;107186;1274;64728;-26
2022/04/25 05:36:46;;;;;;;5.20;2.40;;;;;;99324.50;;;;107183;1274;64879;-30
2022/04/25 05:39:13;;;;;;;4.40;2.60;;;;;;99328.02;;;;107179;1274;65199;-31
2022/04/25 05:41:45;;;;;;;4.10;2.30;;;;;;99325.84;;;;107172;1274;64846;-31
2022/04/25 05:44:13;;;;;;;4.30;2.30;;;;;;99328.47;;;;107142;1274;64744;-32
2022/04/25 05:46:43;;;;;;;4.90;2.50;;;;;;99328.08;;;;107187;1274;64722;-30
2022/04/25 05:52:08;;;;;;;4.10;2.40;;;;;;99329.64;;;;107074;1274;66525;-31
2022/04/25 05:54:38;;;;;;;3.60;2.10;;;;;;99330.59;;;;107172;1274;64749;-31
2022/04/25 05:57:06;;;;;;;5.00;2.60;;;;;;99333.25;;;;107191;1274;64836;-31
2022/04/25 05:59:36;;;;;;;4.20;2.20;;;;;;99337.65;;;;107149;1274;64883;-32
2022/04/25 06:02:03;;;;;;;4.10;2.40;;;;;;99340.46;;;;107191;1274;63568;-26
2022/04/25 06:04:31;;;;;;;5.50;2.60;;;;;;99342.73;;;;107150;1274;64943;-28
2022/04/25 06:06:59;;;;;;;9.00;3.00;;;;;;99347.09;;;;107187;1274;64825;-27
2022/04/25 06:09:26;;;;;;;4.60;2.60;;;;;;99348.77;;;;107214;1273;64734;-27
2022/04/25 06:11:53;;;;;;;5.30;2.50;;;;;;99350.48;;;;107229;1274;64748;-29
2022/04/25 06:14:21;;;;;;;6.30;2.50;;;;;;99351.95;;;;107115;1274;64792;-29
2022/04/25 06:16:48;;;;;;;4.50;2.50;;;;;;99352.55;;;;107182;1274;65836;-30
2022/04/25 06:19:16;;;;;;;7.00;2.60;;;;;;99353.98;;;;107124;1277;64842;-31
2022/04/25 06:21:43;;;;;;;4.90;2.90;;;;;;99354.02;;;;107154;1274;64743;-32
2022/04/25 06:24:10;;;;;;;4.90;2.60;;;;;;99355.54;;;;107147;1274;64868;-29
2022/04/25 06:26:38;;;;;;;4.90;2.70;;;;;;99357.58;;;;107182;1274;64997;-29
2022/04/25 06:29:06;;;;;;;5.60;2.60;;;;;;99357.33;;;;107162;1274;65966;-30
2022/04/25 06:31:34;;;;;;;4.90;2.50;;;;;;99359.90;;;;107166;1274;63574;-37
2022/04/25 06:34:02;;;;;;;4.80;2.50;;;;;;99359.45;;;;107179;1274;64724;-37
2022/04/25 06:36:29;;;;;;;5.10;2.50;;;;;;99358.21;;;;107158;1274;64895;-39
2022/04/25 06:38:56;;;;;;;6.00;2.40;;;;;;99361.75;;;;107187;1274;64751;-34
2022/04/25 06:41:23;;;;;;;4.20;2.30;;;;;;99366.81;;;;107227;1274;65141;-34
2022/04/25 06:43:51;;;;;;;6.10;2.50;;;;;;99368.05;;;;107180;1274;64770;-32
2022/04/25 06:46:18;;;;;;;4.80;2.50;;;;;;99360.92;;;;107224;1274;64928;-28
2022/04/25 06:49:19;;;;;;;4.50;2.90;;;;;;99357.92;;;;107189;1274;64863;-31
2022/04/25 06:51:33;;;;;;;4.80;2.60;;;;;;99355.70;;;;107183;1274;64981;-30
2022/04/25 06:54:00;;;;;;;4.70;2.30;;;;;;99354.59;;;;107180;1274;66000;-30
2022/04/25 06:56:28;;;;;;;4.40;2.50;;;;;;99353.50;;;;107152;1274;64875;-29
2022/04/25 06:58:55;;;;;;;5.80;2.40;;;;;;99358.11;;;;107175;1274;64844;-29
2022/04/25 07:01:22;;;;;;;5.40;2.30;;;;;;99360.55;;;;107180;1274;64097;-29
2022/04/25 07:03:49;;;;;;;5.40;2.50;;;;;;99363.43;;;;107173;1274;64871;-29
2022/04/25 07:06:17;;;;;;;4.40;2.30;;;;;;99367.42;;;;107169;1274;65827;-29
2022/04/25 07:08:44;;;;;;;5.30;2.60;;;;;;99371.23;;;;107180;1274;64638;-30
2022/04/25 07:11:11;;;;;;;4.80;2.70;;;;;;99373.15;;;;107192;1274;64583;-27
2022/04/25 07:13:42;;;;;;;5.90;2.40;;;;;;99371.57;;;;107195;1274;65407;-26
2022/04/25 07:16:09;;;;;;;3.90;2.20;;;;;;99374.61;;;;107279;1273;64781;-28
2022/04/25 07:18:37;;;;;;;6.00;2.60;;;;;;99379.17;;;;107233;1274;66097;-29
2022/04/25 07:28:48;;;;;;;4.00;2.30;;;;;;99381.36;;;;107149;1274;64750;-31
2022/04/25 07:29:27;;;;;;;4.10;2.60;;;;;;99389.54;;;;107152;1275;64809;-29
2022/04/25 07:31:56;;;;;;;4.50;2.30;;;;;;99391.75;;;;107240;1274;66119;-28
2022/04/25 07:34:27;;;;;;;4.60;2.30;;;;;;99394.50;;;;107153;1274;64940;-28
2022/04/25 07:36:56;;;;;;;4.80;2.20;;;;;;99394.15;;;;107162;1274;64760;-30
2022/04/25 07:39:23;;;;;;;4.30;2.20;;;;;;99398.39;;;;107058;1274;64794;-30
2022/04/25 07:41:51;;;;;;;3.80;2.40;;;;;;99398.98;;;;107184;1275;64916;-28
2022/04/25 07:44:18;;;;;;;3.70;2.10;;;;;;99400.02;;;;107238;1274;64838;-28
2022/04/25 07:46:46;;;;;;;4.50;2.20;;;;;;99403.48;;;;107136;1274;64764;-27
2022/04/25 07:49:13;;;;;;;4.40;2.40;;;;;;99407.74;;;;107203;1274;65504;-27
2022/04/25 07:51:40;;;;;;;5.50;3.00;;;;;;99405.13;;;;107265;1274;64850;-28
2022/04/25 07:54:09;;;;;;;5.90;2.60;;;;;;99407.54;;;;107259;1274;64857;-28
2022/04/25 07:56:38;;;;;;;5.60;2.70;;;;;;99414.23;;;;107250;1274;65966;-28
2022/04/25 07:59:05;;;;;;;4.40;2.40;;;;;;99416.45;;;;107239;1274;64850;-28
2022/04/25 08:01:34;;;;;;;4.60;2.30;;;;;;99416.48;;;;107193;1274;64827;-29
2022/04/25 08:04:02;;;;;;;6.20;2.50;;;;;;99418.06;;;;107223;1274;64846;-29
2022/04/25 08:06:29;;;;;;;4.60;2.60;;;;;;99420.52;;;;107216;1274;65064;-28
2022/04/25 08:08:57;;;;;;;5.50;2.60;;;;;;99424.98;;;;107276;1274;66179;-28
2022/04/25 08:11:24;;;;;;;5.50;2.60;;;;;;99428.62;;;;107252;1274;64571;-27
2022/04/25 08:19:39;;;;;;;5.30;2.50;;;;;;99434.39;;;;107079;1274;64983;-29
2022/04/25 08:22:10;;;;;;;4.70;2.50;;;;;;99438.09;;;;107327;1274;64891;-28
2022/04/25 08:24:38;;;;;;;5.00;2.40;;;;;;99439.37;;;;107294;1274;64868;-28
2022/04/25 08:27:06;;;;;;;4.90;2.70;;;;;;99441.08;;;;107315;1274;64842;-27
2022/04/25 08:29:33;;;;;;;5.30;2.50;;;;;;99442.35;;;;107270;1274;64802;-28
2022/04/25 08:32:01;;;;;;;5.00;2.50;;;;;;99443.60;;;;107298;1274;63588;-30
2022/04/25 08:34:28;;;;;;;4.80;2.30;;;;;;99445.00;;;;107313;1274;66519;-32
2022/04/25 08:36:55;;;;;;;4.90;2.50;;;;;;99447.67;;;;107277;1274;64751;-33
2022/04/25 08:39:23;;;;;;;5.10;2.90;;;;;;99451.46;;;;107263;1274;65821;-30
2022/04/25 08:42:01;;;;;;;7.20;2.80;;;;;;99451.97;;;;107254;1274;64871;-30
2022/04/25 08:44:30;;;;;;;7.40;2.90;;;;;;99454.55;;;;107293;1274;65468;-30
2022/04/25 08:46:59;;;;;;;6.70;2.90;;;;;;99453.33;;;;107195;1274;64668;-26
2022/04/25 08:49:28;;;;;;;5.40;3.10;;;;;;99454.05;;;;107174;1274;64878;-26
2022/04/25 08:51:58;;;;;;;5.20;3.20;;;;;;99454.42;;;;107184;1274;64819;-36
2022/04/25 08:54:31;;;;;;;7.50;3.10;;;;;;99454.43;;;;107246;1274;64870;-29
2022/04/25 08:57:00;;;;;;;6.60;2.70;;;;;;99451.76;;;;107274;1274;64749;-30
2022/04/25 08:59:28;;;;;;;6.90;3.10;;;;;;99454.88;;;;107274;1274;64891;-31
2022/04/25 09:01:55;;;;;;;6.10;3.00;;;;;;99451.59;;;;107232;1274;64860;-30
2022/04/25 09:04:23;;;;;;;4.70;2.80;;;;;;99450.77;;;;107225;1274;64723;-30
2022/04/25 09:06:51;;;;;;;5.90;3.40;;;;;;99452.92;;;;107245;1274;64760;-31
2022/04/25 09:09:19;;;;;;;6.80;2.90;;;;;;99454.30;;;;107257;1274;64871;-31
2022/04/25 09:12:33;;;;;;;5.80;2.90;;;;;;99455.95;;;;107243;1274;65849;-28
2022/04/25 09:14:40;;;;;;;5.50;2.60;;;;;;99457.72;;;;107184;1274;64856;-36
2022/04/25 09:17:08;;;;;;;5.60;2.90;;;;;;99463.13;;;;107129;1274;64734;-28
2022/04/25 09:19:38;;;;;;;6.50;2.60;;;;;;99466.78;;;;107175;1274;64809;-28
2022/04/25 09:22:08;;;;;;;5.30;3.00;;;;;;99469.20;;;;107221;1274;64728;-31
2022/04/25 09:24:44;;;;;;;6.20;3.20;;;;;;99474.71;;;;107162;1275;65249;-31
2022/04/25 09:27:18;;;;;;;5.60;2.70;;;;;;99478.73;;;;107170;1274;64865;-28
2022/04/25 09:29:48;;;;;;;5.70;3.00;;;;;;99483.99;;;;107198;1274;64737;-28
2022/04/25 09:32:18;;;;;;;5.50;2.70;;;;;;99482.71;;;;107232;1274;64780;-31
2022/04/25 09:35:02;;;;;;;5.70;2.50;;;;;;99480.17;;;;107156;1274;64609;-31
2022/04/25 09:37:46;;;;;;;5.60;2.60;;;;;;99484.35;;;;107194;1274;67694;-31
2022/04/25 09:40:20;;;;;;;6.50;2.90;;;;;;99483.96;;;;107201;1274;64880;-31
2022/04/25 09:43:14;;;;;;;5.90;2.70;;;;;;99484.89;;;;107135;1274;64853;-30
2022/04/25 09:45:44;;;;;;;5.30;2.80;;;;;;99489.95;;;;107171;1274;64849;-30
2022/04/25 09:48:20;;;;;;;5.80;3.30;;;;;;99494.17;;;;107209;1275;64927;-30
2022/04/25 09:51:08;;;;;;;5.40;2.80;;;;;;99496.00;;;;107121;1275;66176;-25
2022/04/25 09:53:52;;;;;;;5.20;2.80;;;;;;99500.59;;;;107225;1275;64891;-27
2022/04/25 09:56:20;;;;;;;;;;;;;;99502.63;;;;107256;1274;64747;-31
2022/04/25 09:59:09;;;;;;;5.40;2.90;;;;;;99503.40;;;;107149;1274;64862;-28
2022/04/25 10:01:40;;;;;;;5.10;2.70;;;;;;99503.98;;;;107149;1274;64753;-29
2022/04/25 10:04:31;;;;;;;6.10;2.60;;;;;;99507.99;;;;107142;1274;66227;-29
2022/04/25 10:07:06;;;;;;;4.40;2.20;;;;;;99508.61;;;;107159;1274;64965;-27
2022/04/25 10:09:35;;;;;;;4.90;2.40;;;;;;99509.93;;;;107076;1274;64844;-26
2022/04/25 10:12:05;;;;;;;5.60;2.70;;;;;;99514.55;;;;107111;1274;64787;-44
2022/04/25 10:14:33;;;;;;;5.30;2.60;;;;;;99516.86;;;;107148;1274;64777;-30
2022/04/25 10:17:00;;;;;;;5.30;2.50;;;;;;99519.48;;;;107153;1275;65913;-31
2022/04/25 10:19:29;;;;;;;4.40;2.40;;;;;;99520.36;;;;107022;1277;64990;-29
2022/04/25 10:21:56;;;;;;;5.90;2.40;;;;;;99520.59;;;;107218;1274;64766;-26
2022/04/25 10:24:24;;;;;;;5.90;2.40;;;;;;99523.08;;;;107150;1273;64849;-30
2022/04/25 10:26:53;;;;;;;5.50;2.60;;;;;;99523.86;;;;107030;1277;64777;-26
2022/04/25 10:29:32;;;;;;;4.30;2.40;;;;;;99523.10;;;;107138;1274;67577;-26
2022/04/25 10:32:01;;;;;;;5.60;2.30;;;;;;99525.41;;;;107136;1274;64743;-27
2022/04/25 10:34:53;;;;;;;6.00;2.50;;;;;;99523.45;;;;107178;1274;64709;-28
2022/04/25 10:37:36;;;;;;;4.20;2.00;;;;;;99526.45;;;;107198;1274;64776;-32
2022/04/25 10:40:09;;;;;;;5.60;2.50;;;;;;99525.16;;;;107218;1274;64776;-32
2022/04/25 10:46:04;;;;;;;4.50;2.40;;;;;;99527.46;;;;107104;1274;64751;-29
2022/04/25 10:49:11;;;;;;;6.30;2.70;;;;;;99529.58;;;;107190;1274;64732;-32
2022/04/25 10:51:40;;;;;;;5.10;2.30;;;;;;99533.66;;;;107155;1274;64797;-30
2022/04/25 10:54:08;;;;;;;4.80;2.30;;;;;;99537.45;;;;107215;1274;64954;-30
2022/04/25 10:57:08;;;;;;;4.30;2.00;;;;;;99536.67;;;;107199;1274;66533;-29
2022/04/25 10:59:37;;;;;;;5.10;2.60;;;;;;99540.54;;;;107191;1274;64898;-29
2022/04/25 11:02:26;;;;;;;5.00;2.40;;;;;;99540.93;;;;107146;1274;64758;-29
2022/04/25 11:05:12;;;;;;;4.20;2.20;;;;;;99543.65;;;;107180;1274;64748;-29
2022/04/25 11:07:45;;;;;;;4.50;2.30;;;;;;99545.17;;;;107266;1274;64821;-29
2022/04/25 11:10:42;;;;;;;5.20;2.40;;;;;;99549.63;;;;107207;1274;67324;-27
2022/04/25 11:13:12;;;;;;;5.30;2.40;;;;;;99553.38;;;;107195;1274;64808;-29
2022/04/25 11:15:45;;;;;;;4.30;2.20;;;;;;99558.35;;;;107233;1274;64773;-29
2022/04/25 11:18:30;;;;;;;;;;;;;;99560.05;;;;107172;1274;64850;-30
2022/04/25 11:21:04;;;;;;;4.70;2.20;;;;;;99565.31;;;;107174;1274;64791;-30
2022/04/25 11:23:46;;;;;;;4.60;2.30;;;;;;99568.34;;;;107139;1274;68189;-30
2022/04/25 11:26:25;;;;;;;4.80;2.20;;;;;;99568.86;;;;107193;1274;64833;-30
2022/04/25 11:28:55;;;;;;;4.20;2.10;;;;;;99566.13;;;;107174;1275;64738;-30
2022/04/25 11:31:24;;;;;;;5.40;2.30;;;;;;99569.98;;;;107164;1274;64847;-29
2022/04/25 11:33:58;;;;;;;4.40;2.30;;;;;;99571.05;;;;107115;1275;64827;-29
2022/04/25 11:36:26;;;;;;;4.20;2.10;;;;;;99571.44;;;;107061;1274;65843;-29
2022/04/25 11:41:44;;;;;;;4.40;2.00;;;;;;99580.15;;;;107159;1274;64728;-29
2022/04/25 11:44:11;;;;;;;5.10;2.30;;;;;;99582.77;;;;107094;1274;64859;-32
2022/04/25 11:46:39;;;;;;;5.00;2.30;;;;;;99582.06;;;;107254;1274;64747;-32
2022/04/25 11:49:08;;;;;;;4.50;2.20;;;;;;99583.58;;;;107167;1274;65349;-32
2022/04/25 11:51:38;;;;;;;4.10;2.00;;;;;;99587.35;;;;107217;1274;64744;-36
2022/04/25 11:54:10;;;;;;;4.00;2.20;;;;;;99588.23;;;;107180;1274;64761;-27
2022/04/25 11:56:40;;;;;;;4.80;2.20;;;;;;99591.59;;;;107074;1277;64846;-26
2022/04/25 11:59:14;;;;;;;5.10;2.20;;;;;;99594.19;;;;107240;1274;64776;-28
2022/04/25 12:01:48;;;;;;;5.30;2.20;;;;;;99592.54;;;;107207;1274;66503;-27
2022/04/25 12:04:21;;;;;;;4.00;2.10;;;;;;99592.99;;;;107204;1274;64850;-28
2022/04/25 12:06:57;;;;;;;4.20;2.10;;;;;;99593.05;;;;107146;1274;64873;-27
2022/04/25 12:15:36;;;;;;;3.90;2.00;;;;;;99600.09;;;;106958;1274;326437;-27
2022/04/25 12:18:28;;;;;;;4.20;2.10;;;;;;99599.93;;;;107140;1274;64779;-31
2022/04/25 12:21:12;;;;;;;4.60;2.30;;;;;;99601.66;;;;107207;1274;64751;-31
2022/04/25 12:23:54;;;;;;;4.20;2.20;;;;;;99602.61;;;;107184;1274;64705;-30
2022/04/25 12:26:25;;;;;;;8.00;2.40;;;;;;99600.89;;;;107256;1274;64750;-33
2022/04/25 12:29:00;;;;;;;4.80;2.20;;;;;;99601.98;;;;107195;1274;66117;-31
2022/04/25 12:31:48;;;;;;;5.90;2.20;;;;;;99596.22;;;;107075;1274;64769;-27
2022/04/25 12:34:19;;;;;;;4.20;2.10;;;;;;99600.58;;;;107099;1274;65213;-29
2022/04/25 12:36:55;;;;;;;4.70;2.00;;;;;;99595.42;;;;107249;1274;64865;-28
2022/04/25 12:39:24;;;;;;;5.00;2.40;;;;;;99598.63;;;;107288;1274;64754;-29
2022/04/25 12:41:58;;;;;;;4.80;2.20;;;;;;99603.27;;;;107299;1273;67435;-28
2022/04/25 12:44:28;;;;;;;4.80;2.40;;;;;;99604.42;;;;107272;1274;64763;-26
2022/04/25 12:46:59;;;;;;;4.40;2.30;;;;;;99602.95;;;;107335;1274;64840;-30
2022/04/25 12:49:43;;;;;;;4.10;2.40;;;;;;99603.05;;;;107271;1274;64895;-29
2022/04/25 12:52:12;;;;;;;4.60;2.30;;;;;;99602.05;;;;107276;1274;64772;-27
2022/04/25 12:54:42;;;;;;;4.30;2.30;;;;;;99604.38;;;;107225;1274;66005;-27
2022/04/25 12:57:24;;;;;;;4.70;2.60;;;;;;99607.04;;;;107240;1274;64827;-25
2022/04/25 12:59:54;;;;;;;4.20;2.50;;;;;;99605.92;;;;107271;1274;65561;-27
2022/04/25 13:02:32;;;;;;;4.40;2.40;;;;;;99608.30;;;;107240;1274;65413;-29
2022/04/25 13:05:03;;;;;;;3.90;2.20;;;;;;99609.11;;;;107241;1274;64871;-29
2022/04/25 13:07:32;;;;;;;5.10;2.50;;;;;;99611.36;;;;107256;1274;67381;-30
2022/04/25 13:10:02;;;;;;;4.30;2.50;;;;;;99612.42;;;;107254;1274;64908;-31
2022/04/25 13:12:41;;;;;;;4.10;2.60;;;;;;99617.87;;;;107248;1274;64787;-25
2022/04/25 13:15:13;;;;;;;4.90;2.60;;;;;;99621.73;;;;107164;1274;64943;-26
2022/04/25 13:17:42;;;;;;;4.80;2.30;;;;;;99622.98;;;;107240;1273;64740;-31
2022/04/25 13:20:14;;;;;;;4.30;2.40;;;;;;99622.20;;;;107271;1274;64744;-28
2022/04/25 13:22:43;;;;;;;5.30;2.50;;;;;;99621.10;;;;107242;1274;64717;-30
2022/04/25 13:25:14;;;;;;;5.60;2.50;;;;;;99622.28;;;;107101;1277;64855;-31
2022/04/25 13:27:42;;;;;;;5.20;2.60;;;;;;99624.70;;;;107230;1274;64861;-30
2022/04/25 13:30:13;;;;;;;4.00;2.10;;;;;;99627.19;;;;107249;1274;64852;-30
2022/04/25 13:32:45;;;;;;;4.50;2.70;;;;;;99629.54;;;;107158;1274;66078;-32
2022/04/25 13:35:14;;;;;;;4.60;2.40;;;;;;99629.39;;;;107191;1274;65002;-32
2022/04/25 13:37:43;;;;;;;4.90;2.40;;;;;;99628.38;;;;107268;1274;64721;-34
2022/04/25 13:40:11;;;;;;;4.30;2.60;;;;;;99631.25;;;;107246;1274;64754;-32
2022/04/25 13:42:44;;;;;;;3.80;2.40;;;;;;99631.65;;;;107301;1274;65398;-27
2022/04/25 13:45:12;;;;;;;3.90;2.30;;;;;;99632.56;;;;107223;1272;65001;-31
2022/04/25 13:47:41;;;;;;;4.80;2.60;;;;;;99636.34;;;;107217;1274;64865;-27